Time;durP1;ratioP1;P1;durP2;ratioP2;P2;SDS_P1;SDS_P2;PMS_P1;PMS_P2;Temp;Humidity;BMP_temperature;BMP_pressure;BME280_temperature;BME280_humidity;BME280_pressure;Samples;Min_cycle;Max_cycle;Signal;HPM_P1;HPM_P2
2022/07/24 00:04:24;;;;;;;12.02;11.02;;;29.00;48.60;;;;;;4912963;56;21057;-29
2022/07/24 00:09:25;;;;;;;12.37;11.27;;;29.00;48.60;;;;;;4638880;56;21565;-29
2022/07/24 00:14:26;;;;;;;11.85;10.75;;;29.00;48.70;;;;;;5073099;56;21013;-28
2022/07/24 00:19:27;;;;;;;12.25;11.15;;;29.00;48.80;;;;;;4673128;56;21542;-28
2022/07/24 00:24:28;;;;;;;11.45;10.45;;;29.00;48.70;;;;;;4947172;56;21060;-31
2022/07/24 00:29:29;;;;;;;12.50;11.40;;;29.00;48.80;;;;;;4685939;56;21092;-30
2022/07/24 00:34:30;;;;;;;12.85;11.60;;;29.00;48.80;;;;;;4867826;56;21056;-31
2022/07/24 00:39:31;;;;;;;11.45;10.45;;;29.00;48.80;;;;;;4614707;60;21107;-30
2022/07/24 00:44:32;;;;;;;12.43;11.38;;;29.00;48.80;;;;;;4635506;56;21080;-30
2022/07/24 00:49:32;;;;;;;11.23;10.23;;;29.00;49.00;;;;;;4644732;56;21032;-32
2022/07/24 00:54:33;;;;;;;12.13;11.02;;;29.00;48.90;;;;;;4943698;56;21081;-30
2022/07/24 00:59:34;;;;;;;12.10;11.00;;;29.00;49.00;;;;;;4723027;56;21053;-31
2022/07/24 01:04:35;;;;;;;12.07;11.07;;;29.00;49.10;;;;;;4630721;56;21100;-30
2022/07/24 01:09:36;;;;;;;11.55;10.55;;;29.00;49.00;;;;;;5072950;56;21012;-34
2022/07/24 01:14:38;;;;;;;11.77;10.77;;;29.00;49.00;;;;;;4657951;56;21085;-30
2022/07/24 01:19:39;;;;;;;12.05;10.95;;;29.00;49.00;;;;;;4718284;56;21546;-35
2022/07/24 01:24:40;;;;;;;12.23;11.12;;;29.00;49.10;;;;;;4882671;56;21064;-34
2022/07/24 01:29:41;;;;;;;11.68;10.65;;;29.00;49.20;;;;;;4615335;60;21028;-34
2022/07/24 01:34:43;;;;;;;11.68;10.68;;;29.00;49.20;;;;;;4669375;56;21534;-30
2022/07/24 01:39:44;;;;;;;11.95;10.85;;;29.00;49.10;;;;;;4662519;56;21108;-30
2022/07/24 01:44:44;;;;;;;11.43;10.43;;;29.00;49.30;;;;;;4662928;56;21093;-29
2022/07/24 01:49:45;;;;;;;10.98;9.98;;;29.00;49.80;;;;;;5033707;56;21032;-30
2022/07/24 01:54:46;;;;;;;11.52;10.52;;;29.00;49.30;;;;;;4686882;56;21012;-29
2022/07/24 01:59:47;;;;;;;11.50;10.50;;;29.00;49.40;;;;;;4654214;56;21025;-31
2022/07/24 02:04:48;;;;;;;11.50;10.50;;;29.00;49.30;;;;;;4735049;56;21016;-33
2022/07/24 02:09:48;;;;;;;10.38;9.55;;;29.00;49.50;;;;;;4625051;56;21028;-34
2022/07/24 02:14:49;;;;;;;11.63;10.63;;;29.00;49.50;;;;;;4646776;56;21068;-29
2022/07/24 02:19:50;;;;;;;11.60;10.60;;;29.00;49.60;;;;;;4614279;60;21049;-29
2022/07/24 02:24:51;;;;;;;11.07;10.07;;;29.00;49.60;;;;;;4642171;56;21487;-29
2022/07/24 02:29:52;;;;;;;10.95;9.95;;;29.00;49.50;;;;;;4615107;60;21032;-30
2022/07/24 02:34:53;;;;;;;10.48;9.57;;;29.00;49.60;;;;;;4741091;56;21029;-30
2022/07/24 02:39:53;;;;;;;11.07;10.07;;;29.00;49.60;;;;;;4656233;56;21044;-29
2022/07/24 02:44:54;;;;;;;11.32;10.32;;;29.00;49.70;;;;;;4661989;56;21009;-29
2022/07/24 02:49:55;;;;;;;10.93;9.93;;;29.00;49.80;;;;;;4628436;56;21117;-33
2022/07/24 02:54:56;;;;;;;11.02;10.02;;;29.00;49.60;;;;;;4615293;60;21048;-33
2022/07/24 02:59:57;;;;;;;11.23;10.23;;;29.00;49.50;;;;;;4734049;56;21602;-29
2022/07/24 03:04:57;;;;;;;10.85;9.95;;;29.00;49.60;;;;;;4744579;56;21035;-31
2022/07/24 03:09:58;;;;;;;11.18;10.25;;;29.00;49.60;;;;;;4976279;56;21016;-29
2022/07/24 03:14:59;;;;;;;11.68;10.57;;;29.00;49.60;;;;;;4780571;56;21498;-28
2022/07/24 03:20:00;;;;;;;11.15;10.15;;;29.00;49.60;;;;;;4614347;60;21104;-29
2022/07/24 03:25:01;;;;;;;11.07;10.07;;;29.00;49.60;;;;;;4975184;56;21013;-29
2022/07/24 03:30:03;;;;;;;11.18;10.20;;;29.00;49.60;;;;;;4730472;56;21028;-29
2022/07/24 03:35:05;;;;;;;11.43;10.43;;;29.00;49.60;;;;;;4891117;56;21024;-30
2022/07/24 03:40:07;;;;;;;11.25;10.25;;;29.00;49.60;;;;;;4844748;56;21164;-29
2022/07/24 03:45:09;;;;;;;11.10;10.00;;;29.00;49.60;;;;;;5072923;56;21060;-29
2022/07/24 03:50:09;;;;;;;11.00;10.00;;;29.00;49.60;;;;;;4615357;60;21072;-30
2022/07/24 03:55:10;;;;;;;11.15;10.15;;;29.00;49.70;;;;;;4625674;56;21566;-28
2022/07/24 04:00:12;;;;;;;11.98;10.35;;;29.00;49.60;;;;;;4726860;56;21021;-34
2022/07/24 04:05:13;;;;;;;11.15;10.23;;;29.00;49.60;;;;;;4678802;56;21012;-28
2022/07/24 04:10:14;;;;;;;11.23;10.23;;;29.00;49.60;;;;;;4615073;60;21036;-35
2022/07/24 04:15:15;;;;;;;12.05;10.95;;;29.00;49.70;;;;;;4615792;56;21574;-34
2022/07/24 04:20:16;;;;;;;11.25;10.25;;;29.00;49.60;;;;;;4720341;56;21061;-36
2022/07/24 04:25:17;;;;;;;11.73;10.68;;;29.00;49.60;;;;;;4625441;56;21535;-32
2022/07/24 04:30:18;;;;;;;10.80;9.90;;;29.00;49.70;;;;;;4770730;56;21025;-32
2022/07/24 04:35:19;;;;;;;11.07;10.15;;;29.00;49.70;;;;;;4615633;57;21041;-32
2022/07/24 04:40:20;;;;;;;11.25;10.18;;;29.00;49.70;;;;;;4668463;56;21040;-29
2022/07/24 04:45:21;;;;;;;11.25;10.25;;;29.00;49.70;;;;;;4761743;56;21056;-30
2022/07/24 04:50:21;;;;;;;10.80;9.80;;;29.00;49.80;;;;;;4666465;56;21490;-30
2022/07/24 04:55:22;;;;;;;11.93;10.82;;;29.00;49.80;;;;;;4741426;56;21076;-28
2022/07/24 05:00:23;;;;;;;11.05;10.05;;;29.00;49.70;;;;;;4614334;60;21072;-32
2022/07/24 05:05:24;;;;;;;10.85;9.85;;;29.00;49.90;;;;;;4615463;60;21174;-32
2022/07/24 05:10:25;;;;;;;10.68;9.70;;;29.00;49.80;;;;;;4661064;56;21033;-32
2022/07/24 05:15:26;;;;;;;11.50;10.50;;;29.00;49.80;;;;;;4858227;56;21565;-29
2022/07/24 05:20:26;;;;;;;12.10;10.93;;;29.00;49.80;;;;;;4698947;56;21057;-29
2022/07/24 05:25:27;;;;;;;11.48;10.43;;;29.00;49.90;;;;;;4615176;60;21016;-30
2022/07/24 05:30:28;;;;;;;11.07;10.07;;;29.00;49.90;;;;;;4717603;56;21546;-31
2022/07/24 05:35:29;;;;;;;12.18;10.85;;;29.00;49.80;;;;;;5072772;56;21147;-35
2022/07/24 05:40:30;;;;;;;11.70;10.50;;;29.00;50.00;;;;;;4614471;60;21088;-29
2022/07/24 05:45:30;;;;;;;11.98;10.93;;;29.00;49.80;;;;;;4615085;60;21017;-30
2022/07/24 05:50:31;;;;;;;12.73;11.52;;;29.00;49.90;;;;;;4615373;60;21514;-30
2022/07/24 05:55:32;;;;;;;11.88;10.77;;;29.00;49.90;;;;;;4724535;56;21016;-31
2022/07/24 06:00:33;;;;;;;12.68;11.48;;;29.00;49.90;;;;;;5045819;56;21515;-35
2022/07/24 06:05:34;;;;;;;12.32;11.12;;;29.00;50.00;;;;;;4675172;56;21052;-31
2022/07/24 06:10:34;;;;;;;11.77;10.68;;;29.00;49.90;;;;;;5073061;56;21024;-32
2022/07/24 06:15:35;;;;;;;12.37;11.20;;;29.00;50.00;;;;;;4861787;56;21561;-29
2022/07/24 06:20:36;;;;;;;12.85;11.65;;;29.00;50.00;;;;;;4624531;56;21037;-29
2022/07/24 06:25:37;;;;;;;13.25;11.95;;;29.00;50.10;;;;;;4746639;56;21013;-32
2022/07/24 06:30:38;;;;;;;12.15;11.15;;;29.00;50.00;;;;;;4785401;56;21024;-30
2022/07/24 06:35:38;;;;;;;12.13;11.02;;;29.00;50.00;;;;;;4853650;56;21028;-31
2022/07/24 06:40:39;;;;;;;12.63;11.43;;;29.00;50.00;;;;;;4702492;56;21570;-26
2022/07/24 06:45:42;;;;;;;13.00;11.80;;;29.00;49.90;;;;;;4851298;56;21491;-29
2022/07/24 06:50:43;;;;;;;12.90;11.60;;;29.00;49.90;;;;;;5073028;56;21475;-30
2022/07/24 06:55:44;;;;;;;12.77;11.43;;;29.00;50.00;;;;;;4756734;56;21060;-30
2022/07/24 07:00:46;;;;;;;12.90;11.60;;;29.00;49.90;;;;;;4660080;56;21044;-35
2022/07/24 07:05:46;;;;;;;13.60;12.27;;;29.00;49.90;;;;;;4720179;56;21009;-33
2022/07/24 07:10:47;;;;;;;12.43;11.23;;;29.00;49.80;;;;;;4840446;56;21028;-35
2022/07/24 07:15:48;;;;;;;12.02;10.98;;;29.00;49.80;;;;;;4672916;56;21535;-33
2022/07/24 07:20:53;;;;;;;11.70;10.70;;;29.00;49.80;;;;;;4729838;56;21052;-31
2022/07/24 07:25:54;;;;;;;12.88;11.55;;;29.00;49.80;;;;;;4647468;56;21498;-31
2022/07/24 07:30:55;;;;;;;12.70;11.50;;;29.00;49.80;;;;;;4676190;56;21020;-29
2022/07/24 07:35:59;;;;;;;13.13;11.82;;;29.00;49.80;;;;;;4646870;56;21021;-31
2022/07/24 07:40:59;;;;;;;12.05;11.05;;;29.00;49.70;;;;;;4615347;60;21100;-30
2022/07/24 07:46:00;;;;;;;12.50;11.32;;;29.00;49.80;;;;;;4805549;56;21088;-29
2022/07/24 07:51:01;;;;;;;11.95;10.85;;;29.00;49.70;;;;;;4808114;56;21032;-32
2022/07/24 07:56:03;;;;;;;12.52;11.32;;;29.00;49.80;;;;;;4638365;56;21036;-32
2022/07/24 08:01:04;;;;;;;12.52;11.32;;;29.00;49.70;;;;;;4634437;56;21506;-31
2022/07/24 08:06:06;;;;;;;12.68;11.48;;;29.00;49.70;;;;;;4672542;56;21096;-30
2022/07/24 08:11:07;;;;;;;12.20;11.12;;;29.00;49.70;;;;;;4996995;56;21150;-29
2022/07/24 08:16:07;;;;;;;12.27;11.18;;;29.00;49.70;;;;;;4650024;56;21037;-29
2022/07/24 08:21:08;;;;;;;12.40;11.30;;;29.00;49.80;;;;;;4662597;56;21056;-28
2022/07/24 08:26:09;;;;;;;12.02;10.90;;;29.00;49.70;;;;;;4785215;56;21028;-29
2022/07/24 08:31:10;;;;;;;13.23;11.93;;;29.00;49.70;;;;;;4615303;60;21518;-33
2022/07/24 08:36:11;;;;;;;12.52;11.40;;;29.00;49.70;;;;;;4779658;56;21059;-30
2022/07/24 08:41:13;;;;;;;12.25;11.25;;;29.00;49.70;;;;;;4626561;56;21092;-31
2022/07/24 08:46:15;;;;;;;12.43;11.43;;;29.00;49.70;;;;;;4678853;56;21033;-31
2022/07/24 08:51:17;;;;;;;12.45;11.32;;;29.10;49.80;;;;;;4615673;60;21498;-30
2022/07/24 08:56:18;;;;;;;11.98;10.77;;;29.00;49.70;;;;;;4679644;56;21024;-29
2022/07/24 09:01:19;;;;;;;12.60;11.30;;;29.00;49.70;;;;;;4715900;56;21069;-30
2022/07/24 09:06:20;;;;;;;11.60;10.60;;;29.00;49.70;;;;;;4615292;60;21016;-30
2022/07/24 09:11:21;;;;;;;12.25;11.15;;;29.00;49.70;;;;;;4615645;60;21028;-33
2022/07/24 09:16:24;;;;;;;12.40;11.30;;;29.10;49.80;;;;;;4708978;56;21041;-33
2022/07/24 09:21:25;;;;;;;12.75;11.55;;;29.10;49.80;;;;;;4644852;56;21103;-30
2022/07/24 09:26:53;;;;;;;12.57;11.38;;;29.00;49.70;;;;;;4690159;56;21024;-26
2022/07/24 09:31:59;;;;;;;11.90;10.90;;;29.00;49.70;;;;;;4655467;56;21093;-28
2022/07/24 09:37:12;;;;;;;12.65;11.45;;;29.10;49.80;;;;;;4638900;56;21104;-30
2022/07/24 09:42:14;;;;;;;13.05;11.75;;;29.10;49.80;;;;;;4705866;56;21518;-33
2022/07/24 09:47:16;;;;;;;12.32;11.23;;;29.00;49.70;;;;;;4718197;56;21072;-32
2022/07/24 09:52:18;;;;;;;12.35;11.05;;;29.00;49.70;;;;;;4615588;60;21463;-34
2022/07/24 09:57:25;;;;;;;12.75;11.52;;;29.00;49.70;;;;;;4649614;56;21025;-30
2022/07/24 10:02:28;;;;;;;13.10;11.82;;;29.00;49.70;;;;;;4654344;56;21064;-29
2022/07/24 10:07:30;;;;;;;13.10;11.98;;;29.00;49.70;;;;;;4615360;57;21016;-29
2022/07/24 10:12:32;;;;;;;12.30;11.20;;;29.10;49.80;;;;;;4622835;56;21558;-33
2022/07/24 10:18:16;;;;;;;12.95;11.75;;;29.10;49.80;;;;;;4716528;56;21097;-30
2022/07/24 10:23:28;;;;;;;12.98;11.68;;;29.10;49.90;;;;;;4643997;56;21463;-31
2022/07/24 10:28:43;;;;;;;13.00;11.80;;;29.10;49.80;;;;;;4685548;56;21008;-33
2022/07/24 10:33:50;;;;;;;12.73;11.63;;;29.10;49.90;;;;;;4615628;60;21008;-30
2022/07/24 10:39:16;;;;;;;13.18;11.90;;;29.10;49.80;;;;;;4664007;56;21032;-29
2022/07/24 10:44:19;;;;;;;12.80;11.60;;;29.10;49.90;;;;;;4703166;56;21541;-30
2022/07/24 10:49:44;;;;;;;12.73;11.57;;;29.10;49.90;;;;;;4905994;56;21506;-32
2022/07/24 10:54:45;;;;;;;13.80;12.40;;;29.10;49.90;;;;;;4867850;56;21012;-32
2022/07/24 10:59:46;;;;;;;12.90;11.55;;;29.10;50.00;;;;;;4966077;56;21525;-32
2022/07/24 11:04:46;;;;;;;13.23;12.02;;;29.10;49.90;;;;;;4688903;56;21061;-30
2022/07/24 11:09:58;;;;;;;13.60;12.30;;;29.10;49.90;;;;;;4763958;56;21463;-33
2022/07/24 11:15:54;;;;;;;12.50;11.38;;;29.10;49.90;;;;;;4654160;56;21005;-31
2022/07/24 11:20:59;;;;;;;;;;;29.10;49.90;;;;;;4629455;56;22542;-33
2022/07/24 11:27:51;;;;;;;12.97;11.87;;;29.10;50.00;;;;;;4702506;56;20107;-32
2022/07/24 11:32:51;;;;;;;13.25;12.00;;;29.10;49.90;;;;;;4736971;56;21563;-31
2022/07/24 11:37:53;;;;;;;13.05;11.77;;;29.10;49.90;;;;;;4633727;56;21066;-35
2022/07/24 11:42:56;;;;;;;12.95;11.73;;;29.10;49.90;;;;;;4615442;60;21073;-32
2022/07/24 11:47:57;;;;;;;13.35;12.05;;;29.10;49.90;;;;;;4758573;56;21562;-31
2022/07/24 11:52:58;;;;;;;12.43;11.25;;;29.10;49.90;;;;;;4721394;56;21474;-31
2022/07/24 11:57:59;;;;;;;13.15;11.85;;;29.10;49.90;;;;;;4614937;60;21024;-30
2022/07/24 12:03:01;;;;;;;13.25;12.05;;;29.10;49.90;;;;;;4615677;60;21934;-30
2022/07/24 12:08:04;;;;;;;12.37;11.27;;;29.10;49.90;;;;;;4630612;56;21529;-30
2022/07/24 12:13:05;;;;;;;12.35;11.25;;;29.10;49.90;;;;;;4645566;56;21077;-34
2022/07/24 12:18:09;;;;;;;12.60;11.40;;;29.10;49.90;;;;;;4735551;56;21566;-33
2022/07/24 12:23:14;;;;;;;12.73;11.52;;;29.10;49.90;;;;;;4714998;56;21487;-32
2022/07/24 12:28:18;;;;;;;12.73;11.57;;;29.10;49.90;;;;;;4645280;56;21143;-31
2022/07/24 12:33:22;;;;;;;12.30;11.20;;;29.10;49.90;;;;;;4670250;56;21490;-34
2022/07/24 12:38:34;;;;;;;12.45;11.25;;;29.10;49.90;;;;;;4615176;60;21518;-31
2022/07/24 12:44:02;;;;;;;12.88;11.63;;;29.10;49.90;;;;;;4630765;56;21020;-35
2022/07/24 12:49:08;;;;;;;11.88;10.77;;;29.10;49.90;;;;;;4633386;56;21136;-30
2022/07/24 12:54:14;;;;;;;13.35;12.15;;;29.10;49.90;;;;;;4804973;56;21115;-30
2022/07/24 12:59:32;;;;;;;11.95;10.85;;;29.10;49.90;;;;;;4615184;60;21374;-31
2022/07/24 13:04:39;;;;;;;12.32;11.18;;;29.20;50.00;;;;;;4615671;60;21105;-30
2022/07/24 13:09:41;;;;;;;12.05;10.95;;;29.20;50.00;;;;;;4698767;56;21164;-33
2022/07/24 13:14:42;;;;;;;12.43;11.32;;;29.10;49.90;;;;;;4615551;56;21060;-33
2022/07/24 13:19:48;;;;;;;12.85;11.75;;;29.10;49.90;;;;;;4725159;56;21037;-35
2022/07/24 13:24:49;;;;;;;11.93;10.82;;;29.10;49.90;;;;;;4651892;56;21551;-36
2022/07/24 13:29:49;;;;;;;12.25;11.12;;;29.10;50.00;;;;;;4684492;56;21004;-32
2022/07/24 13:34:51;;;;;;;12.25;11.15;;;29.10;49.90;;;;;;4805077;56;21054;-34
2022/07/24 13:39:51;;;;;;;12.98;11.75;;;29.10;49.90;;;;;;5073178;56;21148;-35
2022/07/24 13:44:52;;;;;;;12.32;11.23;;;29.10;49.90;;;;;;4615242;56;21004;-31
2022/07/24 13:49:53;;;;;;;11.57;10.57;;;29.10;50.00;;;;;;4740252;56;21032;-35
2022/07/24 13:54:54;;;;;;;12.30;11.20;;;29.10;49.90;;;;;;4717359;56;21475;-35
2022/07/24 13:59:54;;;;;;;12.07;10.98;;;29.20;50.00;;;;;;4714030;56;21052;-29
2022/07/24 14:04:55;;;;;;;11.40;10.40;;;29.20;50.00;;;;;;4879005;56;21053;-29
2022/07/24 14:09:56;;;;;;;12.27;11.18;;;29.20;50.10;;;;;;4658918;56;21060;-29
2022/07/24 14:14:57;;;;;;;12.50;11.40;;;29.20;50.00;;;;;;4615331;60;21088;-30
2022/07/24 14:19:58;;;;;;;11.48;10.38;;;29.20;50.00;;;;;;4614522;60;21538;-30
2022/07/24 14:24:58;;;;;;;11.32;10.32;;;29.20;50.00;;;;;;4762334;56;21012;-33
2022/07/24 14:29:59;;;;;;;11.70;10.60;;;29.10;50.00;;;;;;4615666;60;21016;-33
2022/07/24 14:35:05;;;;;;;11.48;10.38;;;29.20;50.00;;;;;;4639035;56;21004;-30
2022/07/24 14:40:07;;;;;;;12.30;11.20;;;29.20;50.00;;;;;;4713160;56;21593;-32
2022/07/24 14:45:09;;;;;;;12.25;11.15;;;29.20;50.00;;;;;;4801871;56;21052;-31
2022/07/24 14:50:10;;;;;;;11.48;10.48;;;29.20;50.00;;;;;;4824948;56;21004;-31
2022/07/24 14:55:11;;;;;;;12.18;11.07;;;29.20;50.00;;;;;;4741618;56;21068;-30
2022/07/24 15:00:13;;;;;;;11.57;10.48;;;29.20;50.00;;;;;;4751840;56;21036;-33
2022/07/24 15:05:14;;;;;;;11.90;10.80;;;29.20;50.00;;;;;;4662369;56;21551;-29
2022/07/24 15:10:14;;;;;;;11.27;10.27;;;29.20;50.00;;;;;;4660783;56;21021;-30
2022/07/24 15:15:15;;;;;;;12.25;11.15;;;29.20;50.00;;;;;;4913235;56;21566;-33
2022/07/24 15:20:16;;;;;;;11.68;10.57;;;29.20;50.00;;;;;;4619213;56;21060;-30
2022/07/24 15:25:17;;;;;;;12.18;11.07;;;29.20;50.50;;;;;;4733722;56;21068;-30
2022/07/24 15:30:19;;;;;;;11.45;10.35;;;29.20;50.10;;;;;;4655945;56;21016;-30
2022/07/24 15:35:22;;;;;;;11.68;10.68;;;29.20;50.10;;;;;;4615428;60;21053;-28
2022/07/24 15:40:26;;;;;;;11.23;10.23;;;29.20;50.00;;;;;;4642867;56;21004;-33
2022/07/24 15:45:27;;;;;;;11.48;10.40;;;29.20;50.10;;;;;;4657948;56;21462;-33
2022/07/24 15:50:28;;;;;;;11.55;10.52;;;29.20;50.00;;;;;;4614954;60;21145;-31
2022/07/24 15:55:29;;;;;;;11.60;10.50;;;29.20;50.00;;;;;;4965693;56;21077;-32
2022/07/24 16:00:31;;;;;;;11.55;10.55;;;29.20;50.00;;;;;;4680875;56;21132;-31
2022/07/24 16:05:32;;;;;;;11.68;10.65;;;29.20;50.00;;;;;;4665275;56;21696;-35
2022/07/24 16:10:33;;;;;;;11.85;10.77;;;29.20;50.00;;;;;;4648938;56;21012;-34
2022/07/24 16:15:36;;;;;;;10.98;9.90;;;29.20;50.00;;;;;;4615897;60;21073;-34
2022/07/24 16:20:37;;;;;;;11.20;10.20;;;29.20;50.00;;;;;;4732940;56;21511;-29
2022/07/24 16:25:38;;;;;;;11.60;10.50;;;29.20;50.00;;;;;;4615579;57;21068;-31
2022/07/24 16:30:39;;;;;;;11.27;10.27;;;29.20;50.00;;;;;;4651402;56;20997;-29
2022/07/24 16:35:40;;;;;;;11.32;10.32;;;29.20;50.00;;;;;;4713934;56;21192;-32
2022/07/24 16:40:41;;;;;;;11.70;10.55;;;29.20;50.10;;;;;;4614356;60;21510;-30
2022/07/24 16:45:42;;;;;;;11.68;10.57;;;29.20;50.10;;;;;;4680693;56;21076;-29
2022/07/24 16:50:43;;;;;;;11.30;10.30;;;29.20;50.00;;;;;;4615511;60;21076;-30
2022/07/24 16:55:44;;;;;;;11.82;10.73;;;29.20;50.70;;;;;;4718799;56;21073;-30
2022/07/24 17:00:45;;;;;;;11.10;10.10;;;29.20;50.00;;;;;;4840475;56;21084;-30
2022/07/24 17:05:45;;;;;;;11.75;10.55;;;29.20;50.10;;;;;;4781823;56;21020;-30
2022/07/24 17:10:46;;;;;;;11.05;10.05;;;29.20;50.00;;;;;;4689025;56;21143;-31
2022/07/24 17:15:47;;;;;;;11.07;9.98;;;29.20;50.00;;;;;;4667531;56;21478;-31
2022/07/24 17:20:48;;;;;;;11.15;10.07;;;29.20;50.00;;;;;;4706028;56;21068;-33
2022/07/24 17:25:50;;;;;;;10.77;9.80;;;29.20;50.00;;;;;;4776327;56;21024;-32
2022/07/24 17:30:51;;;;;;;11.40;10.40;;;29.20;50.00;;;;;;4740550;56;21092;-31
2022/07/24 17:35:52;;;;;;;11.05;10.05;;;29.30;50.10;;;;;;4636156;56;21060;-32
2022/07/24 17:40:53;;;;;;;11.12;10.10;;;29.20;50.00;;;;;;4614432;60;21057;-31
2022/07/24 17:45:54;;;;;;;10.82;9.82;;;29.20;50.00;;;;;;4614972;60;21057;-32
2022/07/24 17:50:55;;;;;;;11.27;10.30;;;29.30;50.00;;;;;;4644679;56;21505;-30
2022/07/24 17:55:56;;;;;;;11.63;10.52;;;29.20;50.00;;;;;;4724399;56;21500;-32
2022/07/24 18:00:56;;;;;;;11.70;10.60;;;29.20;50.00;;;;;;4672498;56;21080;-31
2022/07/24 18:05:57;;;;;;;11.32;10.30;;;29.20;50.00;;;;;;4622462;56;21036;-34
2022/07/24 18:10:58;;;;;;;10.68;9.70;;;29.20;50.00;;;;;;4732226;56;21085;-30
2022/07/24 18:15:59;;;;;;;10.45;9.55;;;29.20;50.00;;;;;;4671175;56;21036;-31
2022/07/24 18:21:00;;;;;;;11.52;10.43;;;29.20;50.30;;;;;;4689117;56;21088;-31
2022/07/24 18:26:01;;;;;;;10.63;9.63;;;29.20;50.00;;;;;;4615309;56;21016;-32
2022/07/24 18:31:02;;;;;;;10.77;9.77;;;29.30;50.10;;;;;;4622165;56;21021;-30
2022/07/24 18:36:04;;;;;;;10.85;9.85;;;29.20;50.10;;;;;;4619357;56;21032;-30
2022/07/24 18:41:04;;;;;;;10.75;9.85;;;29.20;50.10;;;;;;4614187;59;21000;-29
2022/07/24 18:46:05;;;;;;;10.32;9.43;;;29.20;50.20;;;;;;4615341;60;21560;-31
2022/07/24 18:51:07;;;;;;;9.93;9.02;;;29.20;50.10;;;;;;4847005;56;21069;-30
2022/07/24 18:56:08;;;;;;;9.98;9.18;;;29.20;50.10;;;;;;4950067;56;21545;-36
2022/07/24 19:01:09;;;;;;;11.32;10.32;;;29.20;50.10;;;;;;4613864;60;21096;-33
2022/07/24 19:06:10;;;;;;;11.07;9.98;;;29.30;50.20;;;;;;4642207;56;21028;-31
2022/07/24 19:11:12;;;;;;;11.55;10.45;;;29.30;50.20;;;;;;4637637;56;21096;-31
2022/07/24 19:16:13;;;;;;;10.55;9.55;;;29.30;50.20;;;;;;4757878;56;21559;-30
2022/07/24 19:21:14;;;;;;;10.98;9.95;;;29.30;50.20;;;;;;4783187;56;21120;-29
2022/07/24 19:26:16;;;;;;;10.65;9.75;;;29.20;50.10;;;;;;4690785;56;22602;-30
2022/07/24 19:31:17;;;;;;;11.65;10.50;;;29.20;50.20;;;;;;4748068;56;21052;-30
2022/07/24 19:36:19;;;;;;;11.25;10.25;;;29.20;50.10;;;;;;4654626;56;21454;-29
2022/07/24 19:41:19;;;;;;;12.07;10.98;;;29.20;50.10;;;;;;4617218;56;21032;-30
2022/07/24 19:46:20;;;;;;;11.50;10.40;;;29.20;50.10;;;;;;4770111;56;21032;-29
2022/07/24 19:51:21;;;;;;;11.50;10.40;;;29.20;50.20;;;;;;4650896;56;21032;-32
2022/07/24 19:56:22;;;;;;;11.27;10.30;;;29.30;50.20;;;;;;4615281;60;21487;-31
2022/07/24 20:01:23;;;;;;;11.32;10.32;;;29.20;50.20;;;;;;4846890;56;21065;-31
2022/07/24 20:06:24;;;;;;;10.95;9.95;;;29.30;50.20;;;;;;4723050;56;21020;-30
2022/07/24 20:11:25;;;;;;;11.88;10.77;;;29.20;50.10;;;;;;4706968;56;21624;-32
2022/07/24 20:16:26;;;;;;;11.55;10.45;;;29.30;50.20;;;;;;4615049;60;21077;-30
2022/07/24 20:21:26;;;;;;;11.70;10.60;;;29.20;50.20;;;;;;4673098;56;21080;-28
2022/07/24 20:26:27;;;;;;;10.85;9.85;;;29.20;50.20;;;;;;4657090;56;21080;-28
2022/07/24 20:31:28;;;;;;;10.95;10.05;;;29.20;50.20;;;;;;4838904;56;21028;-30
2022/07/24 20:36:31;;;;;;;11.68;10.57;;;29.20;50.20;;;;;;4615350;60;21020;-32
2022/07/24 20:41:32;;;;;;;11.38;10.27;;;29.20;50.20;;;;;;4615708;60;21538;-30
2022/07/24 20:46:32;;;;;;;11.12;9.90;;;29.20;50.30;;;;;;4705177;56;21019;-31
2022/07/24 20:51:33;;;;;;;11.35;10.25;;;29.20;50.20;;;;;;4619241;56;21008;-31
2022/07/24 20:56:37;;;;;;;11.73;10.63;;;29.20;50.20;;;;;;4699824;56;21482;-31
2022/07/24 21:01:38;;;;;;;11.32;10.13;;;29.20;50.30;;;;;;4615232;57;21491;-32
2022/07/24 21:06:39;;;;;;;11.15;10.25;;;29.20;50.20;;;;;;4761578;56;21048;-33
2022/07/24 21:11:39;;;;;;;11.18;10.07;;;29.20;50.90;;;;;;4714899;56;21224;-31
2022/07/24 21:16:40;;;;;;;11.02;10.02;;;29.20;50.20;;;;;;4759229;56;21084;-32
2022/07/24 21:21:41;;;;;;;11.12;10.02;;;29.20;50.20;;;;;;4614327;60;21028;-33
2022/07/24 21:26:42;;;;;;;10.38;9.43;;;29.20;50.30;;;;;;4710722;56;21479;-31
2022/07/24 21:31:43;;;;;;;10.95;9.85;;;29.20;50.30;;;;;;4717132;56;21020;-30
2022/07/24 21:36:44;;;;;;;11.10;10.05;;;29.20;50.30;;;;;;4648286;56;21104;-30
2022/07/24 21:41:45;;;;;;;11.27;10.27;;;29.20;50.30;;;;;;4706541;56;21567;-30
2022/07/24 21:46:48;;;;;;;10.55;9.55;;;29.20;50.30;;;;;;4704392;56;21017;-30
2022/07/24 21:51:49;;;;;;;10.02;9.13;;;29.20;50.40;;;;;;4651021;56;21499;-32
2022/07/24 21:56:50;;;;;;;10.25;9.25;;;29.20;50.30;;;;;;4905819;56;21025;-33
2022/07/24 22:01:51;;;;;;;10.18;9.25;;;29.20;50.40;;;;;;4803783;56;21088;-30
2022/07/24 22:06:59;;;;;;;10.38;9.48;;;29.20;50.40;;;;;;4615051;60;21482;-29
2022/07/24 22:12:00;;;;;;;11.35;10.25;;;29.20;50.50;;;;;;4913230;56;20988;-30
2022/07/24 22:17:01;;;;;;;10.65;9.65;;;29.20;50.50;;;;;;4651597;56;21506;-29
2022/07/24 22:22:02;;;;;;;10.95;9.85;;;29.20;50.60;;;;;;4673047;56;21061;-31
2022/07/24 22:27:02;;;;;;;9.88;8.98;;;29.20;50.60;;;;;;4712376;56;21017;-29
2022/07/24 22:32:04;;;;;;;10.25;9.32;;;29.20;51.20;;;;;;4916761;56;21020;-30
2022/07/24 22:37:06;;;;;;;10.75;9.77;;;29.20;50.60;;;;;;4614929;60;21028;-30
2022/07/24 22:42:08;;;;;;;9.90;9.00;;;29.20;50.60;;;;;;4744323;56;21087;-29
2022/07/24 22:47:09;;;;;;;10.25;9.30;;;29.20;50.60;;;;;;4696934;56;21069;-28
2022/07/24 22:52:11;;;;;;;10.32;9.32;;;29.20;50.60;;;;;;4651961;56;21016;-30
2022/07/24 22:57:13;;;;;;;9.68;8.77;;;29.20;50.60;;;;;;4615347;60;21080;-30
2022/07/24 23:02:15;;;;;;;10.20;9.30;;;29.20;50.60;;;;;;4725307;56;21061;-30
2022/07/24 23:07:16;;;;;;;9.80;8.90;;;29.20;50.70;;;;;;4658697;56;21037;-30
2022/07/24 23:12:17;;;;;;;10.55;9.55;;;29.20;50.70;;;;;;4780063;56;21471;-29
2022/07/24 23:17:17;;;;;;;8.95;7.97;;;29.20;50.70;;;;;;4733108;56;21028;-30
2022/07/24 23:22:18;;;;;;;10.38;9.40;;;29.20;50.80;;;;;;4712535;56;21100;-29
2022/07/24 23:27:19;;;;;;;9.73;8.85;;;29.20;50.70;;;;;;4751843;56;21005;-32
2022/07/24 23:32:20;;;;;;;9.88;8.88;;;29.20;50.70;;;;;;4615842;60;21108;-31
2022/07/24 23:37:21;;;;;;;9.55;8.73;;;29.20;50.80;;;;;;4663282;56;21040;-29
2022/07/24 23:42:21;;;;;;;9.90;9.00;;;29.20;50.80;;;;;;4619507;56;21089;-30
2022/07/24 23:47:22;;;;;;;9.60;8.73;;;29.20;50.80;;;;;;4615840;60;21073;-32
2022/07/24 23:52:23;;;;;;;10.20;9.20;;;29.20;50.80;;;;;;4938410;56;21490;-29
2022/07/24 23:57:24;;;;;;;9.70;8.80;;;29.20;50.80;;;;;;4753893;56;21732;-30
